Time;durP1;ratioP1;P1;durP2;ratioP2;P2;SDS_P1;SDS_P2;PMS_P1;PMS_P2;Temp;Humidity;BMP_temperature;BMP_pressure;BME280_temperature;BME280_humidity;BME280_pressure;Samples;Min_cycle;Max_cycle;Signal;HPM_P1;HPM_P2
2021/03/07 00:01:24;;;;;;;12.18;2.50;;;22.70;99.90;;;;;;6331902;22;20013;-65
2021/03/07 00:03:51;;;;;;;11.48;2.17;;;23.10;99.90;;;;;;6332021;22;20007;-63
2021/03/07 00:06:19;;;;;;;10.85;1.83;;;23.60;99.90;;;;;;6331046;22;19999;-64
2021/03/07 00:08:46;;;;;;;11.30;1.80;;;23.50;99.90;;;;;;6356115;22;20429;-64
2021/03/07 00:11:14;;;;;;;10.85;2.22;;;23.10;99.90;;;;;;6332257;22;19987;-64
2021/03/07 00:13:41;;;;;;;10.48;1.63;;;22.90;99.90;;;;;;6332440;22;20055;-64
2021/03/07 00:16:08;;;;;;;14.02;2.47;;;23.50;99.90;;;;;;6357385;22;20078;-64
2021/03/07 00:18:36;;;;;;;10.02;1.80;;;23.90;99.90;;;;;;6330260;22;20003;-63
2021/03/07 00:21:03;;;;;;;7.97;1.50;;;24.00;99.90;;;;;;6331613;22;20014;-64
2021/03/07 00:23:30;;;;;;;9.90;1.33;;;24.50;99.90;;;;;;6333691;22;19991;-64
2021/03/07 00:25:58;;;;;;;11.02;2.03;;;24.90;99.90;;;;;;6331100;22;20059;-64
2021/03/07 00:28:25;;;;;;;12.32;2.33;;;24.80;99.90;;;;;;6331233;22;20007;-64
2021/03/07 00:30:52;;;;;;;145.18;38.05;;;25.00;99.90;;;;;;6321040;22;20054;-67
2021/03/07 00:33:19;;;;;;;34.50;10.90;;;24.70;99.90;;;;;;6312509;22;20061;-65
2021/03/07 00:35:47;;;;;;;1274.13;145.77;;;24.30;99.90;;;;;;6332079;22;20015;-66
2021/03/07 00:38:14;;;;;;;44.83;12.23;;;22.00;99.90;;;;;;6321101;22;20073;-65
2021/03/07 00:40:42;;;;;;;15.43;4.05;;;19.50;99.90;;;;;;6324766;22;20006;-64
2021/03/07 00:43:10;;;;;;;16.55;2.70;;;18.60;99.90;;;;;;6332104;22;20067;-65
2021/03/07 00:45:37;;;;;;;14.73;3.03;;;18.40;99.90;;;;;;6332413;22;20075;-65
2021/03/07 00:48:05;;;;;;;19.55;3.28;;;19.20;99.90;;;;;;6328021;22;20025;-65
2021/03/07 00:50:32;;;;;;;15.23;3.45;;;18.60;99.90;;;;;;6329818;22;19995;-65
2021/03/07 00:52:59;;;;;;;19.58;4.20;;;18.30;99.90;;;;;;6333604;22;20026;-64
2021/03/07 00:55:27;;;;;;;10.05;1.95;;;18.30;99.90;;;;;;6332622;22;20038;-64
2021/03/07 00:57:54;;;;;;;14.38;3.60;;;18.70;99.90;;;;;;6328156;22;20469;-64
2021/03/07 01:00:24;;;;;;;39.28;9.40;;;19.10;99.90;;;;;;6329121;22;19994;-64
2021/03/07 01:02:52;;;;;;;10.25;1.85;;;18.50;99.90;;;;;;6330376;22;20003;-64
2021/03/07 01:05:20;;;;;;;8.23;1.92;;;18.50;99.90;;;;;;6328963;22;19999;-64
2021/03/07 01:07:47;;;;;;;37.15;10.13;;;18.40;99.90;;;;;;6324764;22;19992;-64
2021/03/07 01:10:18;;;;;;;9.88;2.22;;;18.50;99.90;;;;;;6327691;22;20021;-65
2021/03/07 01:12:49;;;;;;;46.50;15.57;;;18.80;99.90;;;;;;6330202;22;19987;-66
2021/03/07 01:15:20;;;;;;;13.90;2.88;;;19.10;99.90;;;;;;6331525;22;20014;-63
2021/03/07 01:17:48;;;;;;;323.25;40.25;;;19.00;99.90;;;;;;6346391;22;20064;-64
2021/03/07 01:20:18;;;;;;;20.40;5.20;;;19.00;99.90;;;;;;6323652;22;20010;-64
2021/03/07 01:22:45;;;;;;;29.98;7.28;;;19.00;99.90;;;;;;6328864;22;20014;-64
2021/03/07 01:25:13;;;;;;;15.27;2.63;;;19.20;99.90;;;;;;6329710;22;19987;-64
2021/03/07 01:27:40;;;;;;;10.95;2.80;;;18.80;99.90;;;;;;6335821;22;20023;-65
2021/03/07 01:30:12;;;;;;;11.55;2.30;;;18.70;99.90;;;;;;6333850;22;19984;-65
2021/03/07 01:32:40;;;;;;;14.85;3.00;;;18.60;99.90;;;;;;6331850;22;19987;-65
2021/03/07 01:35:07;;;;;;;16.35;2.95;;;18.50;99.90;;;;;;6358393;22;20049;-66
2021/03/07 01:37:35;;;;;;;11.85;2.67;;;18.60;99.90;;;;;;6332518;22;19984;-65
2021/03/07 01:40:07;;;;;;;8.48;1.73;;;18.80;99.90;;;;;;6333151;22;20029;-65
2021/03/07 01:42:34;;;;;;;10.32;2.20;;;18.90;99.90;;;;;;6315450;22;19995;-64
2021/03/07 01:45:02;;;;;;;353.63;70.38;;;18.90;99.90;;;;;;6308877;22;20068;-60
2021/03/07 01:47:34;;;;;;;19.30;4.97;;;19.40;99.90;;;;;;6309055;22;20437;-62
2021/03/07 01:50:02;;;;;;;11.20;2.22;;;19.70;99.90;;;;;;6311479;22;19995;-65
2021/03/07 01:52:30;;;;;;;9.63;2.15;;;19.70;99.90;;;;;;6316070;22;20037;-71
2021/03/07 01:54:57;;;;;;;16.95;2.55;;;19.30;99.90;;;;;;6338329;22;20007;-71
2021/03/07 01:57:25;;;;;;;11.43;2.10;;;19.60;99.90;;;;;;6338422;22;20375;-73
2021/03/07 01:59:54;;;;;;;10.05;2.35;;;19.80;99.90;;;;;;6337428;22;20379;-72
2021/03/07 02:02:21;;;;;;;11.43;2.47;;;19.80;99.90;;;;;;6338844;22;20056;-72
2021/03/07 02:04:48;;;;;;;7.88;2.15;;;19.70;99.90;;;;;;6336964;22;20037;-73
2021/03/07 02:07:16;;;;;;;9.43;2.20;;;20.00;99.90;;;;;;6338364;22;20011;-73
2021/03/07 02:09:44;;;;;;;11.20;1.83;;;20.20;99.90;;;;;;6337477;22;20409;-73
2021/03/07 02:12:11;;;;;;;10.02;2.28;;;20.00;99.90;;;;;;6337232;22;19994;-75
2021/03/07 02:14:41;;;;;;;13.07;2.28;;;20.00;99.90;;;;;;6336227;22;20030;-71
2021/03/07 02:17:09;;;;;;;10.35;2.17;;;21.00;99.90;;;;;;6338193;22;20003;-72
2021/03/07 02:19:38;;;;;;;9.38;1.67;;;21.20;99.90;;;;;;6341514;22;20328;-73
2021/03/07 02:22:10;;;;;;;7.72;1.48;;;21.40;99.90;;;;;;6340171;22;19994;-72
2021/03/07 02:24:37;;;;;;;8.50;1.35;;;21.70;99.90;;;;;;6342116;22;20013;-63
2021/03/07 02:27:05;;;;;;;12.95;1.90;;;21.50;99.90;;;;;;6341854;22;20090;-63
2021/03/07 02:29:33;;;;;;;9.40;1.80;;;21.80;99.90;;;;;;6342500;22;20425;-63
2021/03/07 02:32:12;;;;;;;10.07;2.13;;;21.60;99.90;;;;;;6339018;22;20006;-64
2021/03/07 02:34:55;;;;;;;8.32;1.67;;;22.00;99.90;;;;;;6340897;22;20026;-63
2021/03/07 02:37:24;;;;;;;8.67;1.47;;;22.30;99.90;;;;;;6341097;22;19994;-63
2021/03/07 02:39:55;;;;;;;9.45;2.00;;;22.50;99.90;;;;;;6341759;22;20576;-64
2021/03/07 02:42:26;;;;;;;10.00;1.70;;;23.10;99.90;;;;;;6340017;22;19999;-63
2021/03/07 02:45:07;;;;;;;11.73;2.15;;;22.70;99.90;;;;;;6340746;22;20052;-63
2021/03/07 02:47:36;;;;;;;11.98;1.98;;;23.10;99.90;;;;;;6341008;22;19999;-62
2021/03/07 02:50:10;;;;;;;9.55;1.50;;;23.40;99.90;;;;;;6341450;22;20064;-63
2021/03/07 02:52:41;;;;;;;7.82;1.85;;;22.70;99.90;;;;;;6325272;22;20087;-64
2021/03/07 02:55:10;;;;;;;7.18;1.73;;;22.60;99.90;;;;;;6310037;22;20023;-63
2021/03/07 02:57:39;;;;;;;11.90;1.55;;;22.20;99.90;;;;;;6309443;22;19999;-63
2021/03/07 03:00:09;;;;;;;8.60;1.75;;;22.20;99.90;;;;;;6308748;22;20002;-65
2021/03/07 03:02:39;;;;;;;13.70;1.88;;;22.20;99.90;;;;;;6306396;22;19999;-63
2021/03/07 03:05:09;;;;;;;10.48;2.33;;;22.70;99.90;;;;;;6309722;22;19995;-66
2021/03/07 03:07:39;;;;;;;12.05;2.53;;;22.80;99.90;;;;;;6309666;22;20430;-64
2021/03/07 03:10:08;;;;;;;12.93;3.05;;;22.80;99.90;;;;;;6308749;22;20056;-65
2021/03/07 03:12:38;;;;;;;7.13;2.03;;;23.00;99.90;;;;;;6311251;22;20032;-65
2021/03/07 03:15:08;;;;;;;10.63;2.13;;;23.20;99.90;;;;;;6308487;22;20002;-64
2021/03/07 03:17:38;;;;;;;11.10;2.25;;;23.70;99.90;;;;;;6309326;22;20003;-64
2021/03/07 03:20:10;;;;;;;9.45;2.00;;;23.80;99.90;;;;;;6308634;22;20337;-64
2021/03/07 03:22:38;;;;;;;10.63;2.47;;;23.80;99.90;;;;;;6333957;22;20348;-64
2021/03/07 03:25:07;;;;;;;7.90;2.28;;;24.10;99.90;;;;;;6307957;22;20079;-64
2021/03/07 03:27:36;;;;;;;8.90;1.73;;;24.10;99.90;;;;;;6310078;22;20103;-64
2021/03/07 03:30:10;;;;;;;9.98;1.95;;;23.70;99.90;;;;;;6309089;22;20011;-63
2021/03/07 03:32:38;;;;;;;12.43;1.95;;;24.10;99.90;;;;;;6309589;22;20093;-64
2021/03/07 03:35:08;;;;;;;7.35;1.83;;;23.90;99.90;;;;;;6311696;22;20125;-64
2021/03/07 03:37:36;;;;;;;11.10;2.30;;;24.10;99.90;;;;;;6312869;22;20002;-64
2021/03/07 03:40:09;;;;;;;9.23;2.33;;;24.40;99.90;;;;;;6310524;22;20019;-63
2021/03/07 03:42:44;;;;;;;9.20;2.38;;;24.00;99.90;;;;;;6309892;22;19999;-63
2021/03/07 03:45:13;;;;;;;9.50;1.67;;;24.00;99.90;;;;;;6311085;22;20003;-64
2021/03/07 03:47:46;;;;;;;6.35;1.70;;;24.10;99.90;;;;;;6309817;22;20014;-63
2021/03/07 03:50:14;;;;;;;13.32;2.03;;;24.00;99.90;;;;;;6310047;22;20078;-63
2021/03/07 03:52:44;;;;;;;8.73;1.98;;;24.20;99.90;;;;;;6309001;22;20065;-64
2021/03/07 03:55:19;;;;;;;12.20;2.55;;;24.10;99.90;;;;;;6310940;22;20057;-64
2021/03/07 03:57:54;;;;;;;9.30;2.17;;;24.30;99.90;;;;;;6311330;22;20007;-63
2021/03/07 04:00:26;;;;;;;11.38;1.95;;;24.20;99.90;;;;;;6309753;22;19995;-63
2021/03/07 04:02:56;;;;;;;10.90;2.60;;;24.20;99.90;;;;;;6310287;22;20010;-63
2021/03/07 04:05:26;;;;;;;10.25;2.00;;;24.20;99.90;;;;;;6334084;22;20000;-63
2021/03/07 04:07:54;;;;;;;10.48;2.38;;;24.20;99.90;;;;;;6309859;22;20034;-64
2021/03/07 04:10:24;;;;;;;14.52;2.10;;;23.90;99.90;;;;;;6309094;22;20000;-63
2021/03/07 04:12:53;;;;;;;8.20;2.40;;;23.80;99.90;;;;;;6309653;22;20410;-63
2021/03/07 04:15:21;;;;;;;9.15;1.88;;;24.10;99.90;;;;;;6309014;22;20086;-64
2021/03/07 04:17:51;;;;;;;13.32;2.72;;;24.10;99.90;;;;;;6310221;22;20002;-63
2021/03/07 04:20:19;;;;;;;5.72;1.70;;;24.30;99.90;;;;;;6309379;22;19996;-63
2021/03/07 04:22:49;;;;;;;14.18;2.63;;;24.00;99.90;;;;;;6309852;22;19999;-64
2021/03/07 04:25:17;;;;;;;11.27;2.83;;;23.90;99.90;;;;;;6309455;22;20025;-63
2021/03/07 04:27:44;;;;;;;16.10;2.42;;;24.00;99.90;;;;;;6309794;22;20003;-63
2021/03/07 04:30:13;;;;;;;10.75;2.38;;;24.10;99.90;;;;;;6333276;22;20003;-63
2021/03/07 04:32:41;;;;;;;9.05;1.80;;;24.10;99.90;;;;;;6310065;22;20003;-63
2021/03/07 04:35:09;;;;;;;11.32;2.60;;;24.10;99.90;;;;;;6310362;22;20023;-64
2021/03/07 04:37:36;;;;;;;10.25;1.70;;;24.20;99.90;;;;;;6310115;22;20000;-63
2021/03/07 04:40:04;;;;;;;9.75;1.85;;;24.10;99.90;;;;;;6307820;22;20068;-63
2021/03/07 04:42:33;;;;;;;7.10;1.83;;;24.20;99.90;;;;;;6310031;22;20008;-64
2021/03/07 04:45:01;;;;;;;10.38;1.85;;;24.00;99.90;;;;;;6333081;22;20337;-63
2021/03/07 04:47:28;;;;;;;9.30;1.63;;;23.90;99.90;;;;;;6308832;22;20008;-63
2021/03/07 04:49:56;;;;;;;7.95;2.08;;;23.90;99.90;;;;;;6309026;22;20017;-63
2021/03/07 04:52:23;;;;;;;11.40;2.10;;;24.00;99.90;;;;;;6309473;22;19995;-63
2021/03/07 04:54:50;;;;;;;9.27;2.03;;;24.10;99.90;;;;;;6310277;22;20007;-64
2021/03/07 04:57:18;;;;;;;10.48;2.08;;;24.00;99.90;;;;;;6311930;22;20006;-63
2021/03/07 04:59:45;;;;;;;6.68;1.83;;;24.00;99.90;;;;;;6312303;22;20009;-63
2021/03/07 05:02:12;;;;;;;9.13;1.85;;;24.10;99.90;;;;;;6313172;22;19999;-63
2021/03/07 05:04:39;;;;;;;7.00;1.48;;;24.30;99.90;;;;;;6311967;22;20006;-64
2021/03/07 05:07:07;;;;;;;10.57;2.33;;;24.20;99.90;;;;;;6313732;22;20018;-63
2021/03/07 05:09:34;;;;;;;8.35;1.30;;;24.30;99.90;;;;;;6312415;22;20385;-63
2021/03/07 05:12:01;;;;;;;11.18;1.58;;;24.20;99.90;;;;;;6313222;22;20014;-63
2021/03/07 05:14:29;;;;;;;9.00;1.50;;;24.00;99.90;;;;;;6335997;22;20491;-64
2021/03/07 05:16:56;;;;;;;10.70;1.88;;;24.00;99.90;;;;;;6336801;22;20426;-65
2021/03/07 05:19:23;;;;;;;8.20;1.50;;;23.90;99.90;;;;;;6311582;22;19996;-63
2021/03/07 05:21:51;;;;;;;8.00;1.67;;;23.80;99.90;;;;;;6312759;22;20082;-63
2021/03/07 05:24:18;;;;;;;8.23;2.03;;;23.80;99.90;;;;;;6309637;22;19999;-63
2021/03/07 05:26:46;;;;;;;10.25;1.83;;;23.60;99.90;;;;;;6313512;22;20003;-63
2021/03/07 05:29:14;;;;;;;8.93;1.92;;;23.60;99.90;;;;;;6312686;22;20388;-63
2021/03/07 05:31:41;;;;;;;7.10;1.75;;;23.60;99.90;;;;;;6313548;22;20003;-63
2021/03/07 05:34:08;;;;;;;13.55;2.67;;;23.60;99.90;;;;;;6310775;22;19999;-64
2021/03/07 05:36:36;;;;;;;12.07;1.77;;;23.70;99.90;;;;;;6311600;22;20006;-64
2021/03/07 05:39:05;;;;;;;7.95;1.83;;;23.60;99.90;;;;;;6309482;22;20003;-64
2021/03/07 05:41:32;;;;;;;6.30;1.33;;;23.60;99.90;;;;;;6309659;22;19995;-64
2021/03/07 05:43:59;;;;;;;6.50;2.08;;;23.50;99.90;;;;;;6307252;22;20002;-64
2021/03/07 05:46:27;;;;;;;6.50;1.42;;;23.50;99.90;;;;;;6309071;22;20034;-64
2021/03/07 05:48:54;;;;;;;6.93;1.27;;;23.40;99.90;;;;;;6308640;22;20066;-64
2021/03/07 05:51:22;;;;;;;7.88;1.30;;;23.50;99.90;;;;;;6309796;22;19999;-64
2021/03/07 05:53:50;;;;;;;6.55;1.10;;;23.60;99.90;;;;;;6309257;22;20477;-64
2021/03/07 05:56:20;;;;;;;7.68;1.50;;;23.60;99.90;;;;;;6309820;22;19999;-64
2021/03/07 05:58:50;;;;;;;8.57;1.80;;;23.70;99.90;;;;;;6310626;22;20005;-64
2021/03/07 06:01:18;;;;;;;10.13;1.58;;;23.70;99.90;;;;;;6310572;22;20058;-64
2021/03/07 06:03:45;;;;;;;4.47;1.35;;;23.70;99.90;;;;;;6309167;22;20008;-64
2021/03/07 06:06:13;;;;;;;8.50;1.58;;;23.70;99.90;;;;;;6310040;22;20053;-64
2021/03/07 06:08:41;;;;;;;9.23;1.65;;;23.80;99.90;;;;;;6308395;22;20000;-64
2021/03/07 06:11:09;;;;;;;8.48;2.20;;;23.70;99.90;;;;;;6333810;22;20007;-63
2021/03/07 06:13:43;;;;;;;10.77;1.98;;;23.50;99.90;;;;;;6308595;22;20003;-64
2021/03/07 06:16:12;;;;;;;9.60;2.17;;;23.50;99.90;;;;;;6308721;22;20262;-64
2021/03/07 06:18:44;;;;;;;9.48;1.90;;;23.50;99.90;;;;;;6306331;22;19995;-64
2021/03/07 06:21:34;;;;;;;7.68;1.55;;;23.50;99.90;;;;;;6306983;22;20062;-64
2021/03/07 06:24:02;;;;;;;11.75;2.00;;;23.60;99.90;;;;;;6305651;22;20441;-64
2021/03/07 06:26:30;;;;;;;7.78;1.52;;;23.60;99.90;;;;;;6306087;22;20007;-64
2021/03/07 06:29:07;;;;;;;9.50;1.42;;;23.50;99.90;;;;;;6305627;22;20003;-63
2021/03/07 06:31:35;;;;;;;10.52;2.10;;;23.50;99.90;;;;;;6306759;22;20004;-64
2021/03/07 06:34:04;;;;;;;7.72;1.67;;;23.40;99.90;;;;;;6304524;22;20354;-64
2021/03/07 06:36:31;;;;;;;8.32;1.63;;;23.40;99.90;;;;;;6307535;22;20386;-65
2021/03/07 06:39:02;;;;;;;11.20;2.13;;;23.30;99.90;;;;;;6307252;22;20023;-65
2021/03/07 06:41:32;;;;;;;11.13;2.28;;;23.30;99.90;;;;;;6307021;22;20027;-64
2021/03/07 06:44:13;;;;;;;7.22;1.40;;;23.30;99.90;;;;;;6307716;22;20465;-65
2021/03/07 06:46:45;;;;;;;7.20;1.70;;;23.30;99.90;;;;;;6306724;22;20008;-64
2021/03/07 06:49:28;;;;;;;12.38;1.85;;;23.30;99.90;;;;;;6308116;22;20003;-64
2021/03/07 06:52:11;;;;;;;10.63;1.90;;;23.30;99.90;;;;;;6308607;22;19999;-65
2021/03/07 06:54:40;;;;;;;7.43;1.40;;;23.20;99.90;;;;;;6307002;22;20041;-65
2021/03/07 06:57:07;;;;;;;7.22;1.60;;;23.20;99.90;;;;;;6308007;22;20551;-65
2021/03/07 06:59:35;;;;;;;7.97;1.95;;;23.10;99.90;;;;;;6307022;22;19995;-64
2021/03/07 07:02:11;;;;;;;10.75;2.63;;;23.00;99.90;;;;;;6306062;22;20040;-64
2021/03/07 07:04:43;;;;;;;12.38;2.35;;;23.00;99.90;;;;;;6309573;22;20003;-64
2021/03/07 07:07:16;;;;;;;10.70;2.30;;;23.00;99.90;;;;;;6307366;22;20012;-64
2021/03/07 07:09:46;;;;;;;11.00;2.05;;;22.90;99.90;;;;;;6309911;22;20072;-64
2021/03/07 07:12:25;;;;;;;10.57;2.47;;;22.90;99.90;;;;;;6312908;22;19999;-64
2021/03/07 07:15:07;;;;;;;9.98;2.08;;;22.90;99.90;;;;;;6311535;22;20003;-64
2021/03/07 07:17:35;;;;;;;14.93;3.17;;;22.90;99.90;;;;;;6329314;22;20026;-64
2021/03/07 07:20:05;;;;;;;10.10;1.50;;;22.90;99.90;;;;;;6315434;22;20011;-64
2021/03/07 07:22:32;;;;;;;13.50;2.72;;;22.90;99.90;;;;;;6308119;22;19999;-64
2021/03/07 07:25:00;;;;;;;9.13;2.15;;;22.90;99.90;;;;;;6307190;22;20049;-63
2021/03/07 07:27:27;;;;;;;8.70;2.25;;;22.80;99.90;;;;;;6308027;22;20483;-63
2021/03/07 07:29:55;;;;;;;6.68;1.95;;;22.80;99.90;;;;;;6309810;22;20003;-64
2021/03/07 07:32:43;;;;;;;9.57;1.98;;;22.70;99.90;;;;;;6311768;22;19995;-64
2021/03/07 07:35:20;;;;;;;10.32;1.85;;;22.70;99.90;;;;;;6335012;22;20026;-64
2021/03/07 07:37:54;;;;;;;8.10;1.80;;;22.70;99.90;;;;;;6313016;22;20441;-64
2021/03/07 07:40:43;;;;;;;9.70;2.55;;;22.70;99.90;;;;;;6312995;22;20429;-64
2021/03/07 07:43:12;;;;;;;10.52;2.72;;;22.70;99.90;;;;;;6314528;22;20026;-64
2021/03/07 07:45:39;;;;;;;10.50;2.38;;;22.60;99.90;;;;;;6311507;22;20334;-64
2021/03/07 07:48:07;;;;;;;10.70;2.15;;;22.60;99.90;;;;;;6308853;22;20014;-64
2021/03/07 07:50:37;;;;;;;9.30;2.47;;;22.60;99.90;;;;;;6311433;22;20006;-64
2021/03/07 07:53:14;;;;;;;9.05;2.38;;;22.50;99.90;;;;;;6313357;22;20023;-64
2021/03/07 07:56:00;;;;;;;14.85;2.30;;;22.40;99.90;;;;;;6316990;22;20014;-75
2021/03/07 07:58:37;;;;;;;11.15;2.53;;;22.40;99.90;;;;;;6337727;22;19995;-74
2021/03/07 08:01:14;;;;;;;11.43;1.92;;;22.30;99.90;;;;;;6337664;22;19999;-74
2021/03/07 08:03:51;;;;;;;11.38;2.47;;;22.30;99.90;;;;;;6337838;22;20078;-75
2021/03/07 08:06:24;;;;;;;12.60;3.03;;;22.20;99.90;;;;;;6337391;22;20025;-73
2021/03/07 08:08:52;;;;;;;9.27;2.60;;;22.20;99.90;;;;;;6337621;22;20264;-75
2021/03/07 08:11:25;;;;;;;11.65;2.22;;;22.20;99.90;;;;;;6337855;22;20220;-75
2021/03/07 08:13:59;;;;;;;9.93;2.00;;;22.20;99.90;;;;;;6336133;22;20006;-75
2021/03/07 08:16:44;;;;;;;13.02;2.53;;;22.20;99.90;;;;;;6338507;22;19998;-76
2021/03/07 08:19:16;;;;;;;11.63;2.55;;;22.10;99.90;;;;;;6336099;22;20495;-75
2021/03/07 08:22:04;;;;;;;10.35;2.70;;;22.10;99.90;;;;;;6338289;22;19995;-74
2021/03/07 08:24:58;;;;;;;15.32;3.33;;;22.00;99.90;;;;;;6336385;22;20003;-75
2021/03/07 08:27:34;;;;;;;12.13;2.27;;;22.00;99.90;;;;;;6333884;22;20017;-74
2021/03/07 08:30:03;;;;;;;12.10;2.13;;;22.00;99.90;;;;;;6339638;22;20010;-74
2021/03/07 08:32:56;;;;;;;9.68;2.00;;;22.00;99.90;;;;;;6340458;22;20010;-75
2021/03/07 08:35:25;;;;;;;16.52;2.85;;;22.00;99.90;;;;;;6335985;22;20180;-75
2021/03/07 08:38:14;;;;;;;9.73;1.88;;;22.00;99.90;;;;;;6339947;22;20003;-75
2021/03/07 08:40:59;;;;;;;11.30;1.88;;;21.90;99.90;;;;;;6340639;22;19994;-75
2021/03/07 08:43:28;;;;;;;11.95;2.65;;;21.90;99.90;;;;;;6340273;22;20006;-75
2021/03/07 08:46:10;;;;;;;7.72;1.92;;;21.90;99.90;;;;;;6340129;22;20006;-75
2021/03/07 08:48:40;;;;;;;8.55;2.42;;;21.90;99.90;;;;;;6340164;22;19999;-74
2021/03/07 08:51:09;;;;;;;10.85;1.90;;;21.80;99.90;;;;;;6340908;22;20002;-74
2021/03/07 08:53:39;;;;;;;9.00;1.17;;;21.80;99.90;;;;;;6314999;22;20007;-75
2021/03/07 08:56:07;;;;;;;7.80;2.17;;;21.80;99.90;;;;;;6308570;22;20023;-75
2021/03/07 08:58:34;;;;;;;10.77;2.05;;;21.90;99.90;;;;;;6308275;22;20602;-75
2021/03/07 09:01:02;;;;;;;8.65;1.90;;;21.90;99.90;;;;;;6309502;22;20003;-75
2021/03/07 09:03:30;;;;;;;6.38;1.70;;;21.90;99.90;;;;;;6309208;22;20010;-75
2021/03/07 09:05:57;;;;;;;11.30;2.20;;;21.80;99.90;;;;;;6309107;22;20048;-75
2021/03/07 09:08:27;;;;;;;8.80;1.95;;;21.80;99.90;;;;;;6309221;22;20030;-74
2021/03/07 09:11:02;;;;;;;9.93;1.77;;;21.90;99.90;;;;;;6309774;22;19995;-75
2021/03/07 09:13:31;;;;;;;7.60;1.92;;;21.90;99.90;;;;;;6334289;22;20011;-75
2021/03/07 09:16:01;;;;;;;10.32;1.83;;;21.90;99.90;;;;;;6309106;22;20070;-75
2021/03/07 09:18:32;;;;;;;7.55;1.83;;;21.90;99.90;;;;;;6333524;22;20007;-75
2021/03/07 09:21:05;;;;;;;9.13;1.60;;;21.80;99.90;;;;;;6309049;22;20461;-74
2021/03/07 09:23:47;;;;;;;8.88;1.98;;;21.80;99.90;;;;;;6309455;22;20044;-74
2021/03/07 09:26:23;;;;;;;7.38;1.98;;;21.80;99.90;;;;;;6308923;22;19999;-74
2021/03/07 09:28:52;;;;;;;11.05;2.20;;;21.80;99.90;;;;;;6308472;22;20003;-75
2021/03/07 09:31:33;;;;;;;11.43;2.38;;;21.80;99.90;;;;;;6308598;22;20421;-75
2021/03/07 09:34:05;;;;;;;11.13;1.92;;;21.70;99.90;;;;;;6309660;22;19999;-75
2021/03/07 09:36:39;;;;;;;14.52;2.30;;;21.70;99.90;;;;;;6309888;22;20017;-75
2021/03/07 09:39:08;;;;;;;10.27;1.58;;;21.70;99.90;;;;;;6309417;22;20014;-75
2021/03/07 09:41:46;;;;;;;11.95;1.75;;;21.70;99.90;;;;;;6307601;22;20004;-75
2021/03/07 09:44:18;;;;;;;9.65;1.55;;;21.70;99.90;;;;;;6307184;22;19996;-75
2021/03/07 09:46:52;;;;;;;8.00;1.70;;;21.60;99.90;;;;;;6307261;22;20429;-75
2021/03/07 09:49:26;;;;;;;12.13;3.35;;;21.60;99.90;;;;;;6307576;22;20334;-74
2021/03/07 09:51:53;;;;;;;;;;;21.60;99.90;;;;;;6307613;22;20006;-75
2021/03/07 09:54:21;;;;;;;8.32;1.50;;;21.70;99.90;;;;;;6306987;22;19906;-75
2021/03/07 09:56:55;;;;;;;12.07;1.77;;;21.70;99.90;;;;;;6306523;22;20026;-75
2021/03/07 09:59:24;;;;;;;;;;;21.60;99.90;;;;;;6331560;22;20010;-75
2021/03/07 10:02:00;;;;;;;10.10;2.15;;;21.60;99.90;;;;;;6307701;22;19898;-74
2021/03/07 10:04:28;;;;;;;12.10;2.53;;;21.60;99.90;;;;;;6307631;22;20506;-75
2021/03/07 10:06:55;;;;;;;9.95;2.20;;;21.60;99.90;;;;;;6307579;22;20007;-75
2021/03/07 10:09:22;;;;;;;8.40;2.00;;;21.70;99.90;;;;;;6307386;22;20360;-75
2021/03/07 10:12:03;;;;;;;9.52;1.70;;;21.70;99.90;;;;;;6306853;22;20079;-75
2021/03/07 10:14:32;;;;;;;7.13;2.60;;;21.60;99.90;;;;;;6307216;22;20336;-75
2021/03/07 10:17:01;;;;;;;8.85;2.53;;;21.70;99.90;;;;;;6307191;22;20056;-75
2021/03/07 10:19:36;;;;;;;11.57;2.38;;;21.60;99.90;;;;;;6307501;22;20042;-75
2021/03/07 10:22:05;;;;;;;14.35;1.83;;;21.60;99.90;;;;;;6307114;22;19999;-75
2021/03/07 10:24:34;;;;;;;12.18;1.92;;;21.60;99.90;;;;;;6306320;22;20307;-75
2021/03/07 10:27:06;;;;;;;8.43;1.25;;;21.70;99.90;;;;;;6306925;22;20042;-74
2021/03/07 10:29:41;;;;;;;11.25;1.65;;;21.70;99.90;;;;;;6307177;22;20494;-75
2021/03/07 10:32:14;;;;;;;10.75;1.63;;;21.70;99.90;;;;;;6306721;22;20031;-75
2021/03/07 10:34:43;;;;;;;11.43;2.00;;;21.70;99.90;;;;;;6307299;22;20003;-75
2021/03/07 10:37:29;;;;;;;8.70;2.03;;;21.70;99.90;;;;;;6307558;22;19999;-75
2021/03/07 10:39:57;;;;;;;9.48;2.25;;;21.70;99.90;;;;;;6307125;22;19995;-74
2021/03/07 10:42:35;;;;;;;14.50;2.67;;;21.70;99.90;;;;;;6306574;22;20007;-74
2021/03/07 10:45:16;;;;;;;9.48;2.00;;;21.70;99.90;;;;;;6306992;22;20004;-75
2021/03/07 10:47:57;;;;;;;9.55;1.85;;;21.60;99.90;;;;;;6306470;22;20052;-75
2021/03/07 10:50:25;;;;;;;12.52;2.05;;;21.60;99.90;;;;;;6307350;22;20430;-75
2021/03/07 10:52:53;;;;;;;10.23;1.50;;;21.60;99.90;;;;;;6307187;22;20000;-75
2021/03/07 10:55:21;;;;;;;9.98;1.13;;;21.60;99.90;;;;;;6306750;22;20011;-75
2021/03/07 10:57:48;;;;;;;9.40;1.65;;;21.60;99.90;;;;;;6306856;22;19995;-75
2021/03/07 11:00:16;;;;;;;14.25;1.92;;;21.60;99.90;;;;;;6306872;22;20009;-74
2021/03/07 11:02:47;;;;;;;10.73;1.63;;;21.70;99.90;;;;;;6306776;22;20007;-75
2021/03/07 11:05:15;;;;;;;8.63;1.77;;;21.60;99.90;;;;;;6310438;22;20014;-64
2021/03/07 11:07:44;;;;;;;10.30;1.60;;;21.70;99.90;;;;;;6310297;22;19999;-64
2021/03/07 11:10:14;;;;;;;6.38;1.60;;;21.60;99.90;;;;;;6333838;22;20003;-65
2021/03/07 11:12:42;;;;;;;11.95;2.03;;;21.60;99.90;;;;;;6310932;22;20368;-64
2021/03/07 11:15:11;;;;;;;10.43;1.40;;;21.60;99.90;;;;;;6311265;22;20199;-65
2021/03/07 11:17:39;;;;;;;17.08;2.25;;;21.60;99.90;;;;;;6310473;22;20010;-65
2021/03/07 11:20:11;;;;;;;11.05;3.03;;;21.60;99.90;;;;;;6311107;22;20048;-64
2021/03/07 11:22:39;;;;;;;14.02;2.00;;;21.50;99.90;;;;;;6312239;22;19996;-64
2021/03/07 11:25:07;;;;;;;7.25;1.60;;;21.60;99.90;;;;;;6311151;22;20080;-64
2021/03/07 11:27:35;;;;;;;14.95;2.10;;;21.50;99.90;;;;;;6311302;22;20007;-64
2021/03/07 11:30:03;;;;;;;14.10;2.15;;;21.50;99.90;;;;;;6310842;22;20486;-65
2021/03/07 11:32:31;;;;;;;11.00;2.40;;;21.60;99.90;;;;;;6310163;22;20003;-64
2021/03/07 11:34:58;;;;;;;11.93;2.50;;;21.60;99.90;;;;;;6310633;22;20334;-64
2021/03/07 11:37:26;;;;;;;11.68;1.80;;;21.50;99.90;;;;;;6311427;22;19995;-64
2021/03/07 11:39:53;;;;;;;14.77;2.50;;;21.50;99.90;;;;;;6311393;22;20021;-64
2021/03/07 11:42:20;;;;;;;11.43;2.00;;;21.50;99.90;;;;;;6310741;22;20486;-64
2021/03/07 11:44:47;;;;;;;12.20;2.28;;;21.60;99.90;;;;;;6335464;22;20353;-64
2021/03/07 11:47:15;;;;;;;10.70;2.42;;;21.60;99.90;;;;;;6311372;22;20074;-64
2021/03/07 11:49:42;;;;;;;15.85;2.15;;;21.60;99.90;;;;;;6311033;22;20067;-64
2021/03/07 11:52:10;;;;;;;15.65;2.08;;;21.60;99.90;;;;;;6310534;22;20337;-64
2021/03/07 11:54:38;;;;;;;10.50;1.92;;;21.60;99.90;;;;;;6310080;22;19999;-64
2021/03/07 11:57:06;;;;;;;10.15;2.30;;;21.50;99.90;;;;;;6310293;22;20023;-65
2021/03/07 11:59:34;;;;;;;15.57;2.45;;;21.50;99.90;;;;;;6309526;22;20053;-64
2021/03/07 12:02:03;;;;;;;12.90;2.85;;;21.40;99.90;;;;;;6310327;22;20004;-65
2021/03/07 12:04:30;;;;;;;12.82;2.35;;;21.40;99.90;;;;;;6309699;22;20482;-65
2021/03/07 12:06:57;;;;;;;15.52;2.08;;;21.40;99.90;;;;;;6310490;22;20342;-64
2021/03/07 12:09:25;;;;;;;17.98;2.80;;;21.40;99.90;;;;;;6309609;22;20027;-64
2021/03/07 12:11:52;;;;;;;13.10;2.20;;;21.40;99.90;;;;;;6309892;22;20061;-64
2021/03/07 12:14:19;;;;;;;13.30;2.60;;;21.40;99.90;;;;;;6309569;22;20424;-64
2021/03/07 12:16:47;;;;;;;18.65;2.65;;;21.40;99.90;;;;;;6310519;22;19995;-65
2021/03/07 12:19:14;;;;;;;12.30;2.05;;;21.50;99.90;;;;;;6310817;22;20003;-65
2021/03/07 12:21:42;;;;;;;12.32;1.92;;;21.50;99.90;;;;;;6309548;22;20045;-64
2021/03/07 12:24:10;;;;;;;14.15;2.42;;;21.40;99.90;;;;;;6309991;22;20003;-64
2021/03/07 12:26:37;;;;;;;14.50;2.75;;;21.40;99.90;;;;;;6310107;22;20007;-64
2021/03/07 12:29:05;;;;;;;17.00;3.08;;;21.40;99.90;;;;;;6310320;22;20011;-65
2021/03/07 12:31:33;;;;;;;15.45;2.80;;;21.40;99.90;;;;;;6310040;22;19996;-64
2021/03/07 12:34:00;;;;;;;14.68;2.10;;;21.40;99.90;;;;;;6310518;22;20442;-64
2021/03/07 12:36:28;;;;;;;15.50;2.55;;;21.40;99.90;;;;;;6309666;22;19995;-64
2021/03/07 12:38:55;;;;;;;18.00;2.92;;;21.40;99.90;;;;;;6309775;22;20007;-65
2021/03/07 12:41:22;;;;;;;17.80;3.58;;;21.40;99.90;;;;;;6309986;22;20003;-64
2021/03/07 12:43:50;;;;;;;21.35;3.83;;;21.40;99.90;;;;;;6309121;22;20003;-64
2021/03/07 12:46:17;;;;;;;19.23;2.92;;;21.30;99.90;;;;;;6310080;22;20007;-64
2021/03/07 12:48:44;;;;;;;15.18;2.47;;;21.30;99.90;;;;;;6309386;22;20014;-64
2021/03/07 12:51:12;;;;;;;28.20;3.15;;;21.30;99.90;;;;;;6310368;22;20026;-65
2021/03/07 12:53:39;;;;;;;12.57;3.47;;;21.30;99.90;;;;;;6309799;22;19995;-64
2021/03/07 12:56:07;;;;;;;26.92;4.03;;;21.30;99.90;;;;;;6310191;22;20039;-64